sensor_id;sensor_type;location;lat;lon;timestamp;P1;durP1;ratioP1;P2;durP2;ratioP2
28266;SDS011;15525;45.568;5.448;2023-08-17T00:01:50;8.98;;;3.95;;
28266;SDS011;15525;45.568;5.448;2023-08-17T00:04:16;6.68;;;4.13;;
28266;SDS011;15525;45.568;5.448;2023-08-17T00:06:41;5.25;;;3.80;;
28266;SDS011;15525;45.568;5.448;2023-08-17T00:09:07;6.95;;;4.00;;
28266;SDS011;15525;45.568;5.448;2023-08-17T00:11:33;4.50;;;3.83;;
28266;SDS011;15525;45.568;5.448;2023-08-17T00:13:58;5.95;;;3.80;;
28266;SDS011;15525;45.568;5.448;2023-08-17T00:16:24;7.60;;;3.50;;
28266;SDS011;15525;45.568;5.448;2023-08-17T00:18:50;7.45;;;4.40;;
28266;SDS011;15525;45.568;5.448;2023-08-17T00:21:15;6.93;;;4.30;;
28266;SDS011;15525;45.568;5.448;2023-08-17T00:23:41;6.40;;;4.10;;
28266;SDS011;15525;45.568;5.448;2023-08-17T00:26:07;5.70;;;4.10;;
28266;SDS011;15525;45.568;5.448;2023-08-17T00:28:33;7.28;;;4.10;;
28266;SDS011;15525;45.568;5.448;2023-08-17T00:30:59;6.35;;;4.30;;
28266;SDS011;15525;45.568;5.448;2023-08-17T00:33:25;7.47;;;4.25;;
28266;SDS011;15525;45.568;5.448;2023-08-17T00:35:51;5.85;;;4.15;;
28266;SDS011;15525;45.568;5.448;2023-08-17T00:38:16;5.38;;;3.75;;
28266;SDS011;15525;45.568;5.448;2023-08-17T00:40:41;6.97;;;4.13;;
28266;SDS011;15525;45.568;5.448;2023-08-17T00:43:07;8.82;;;4.03;;
28266;SDS011;15525;45.568;5.448;2023-08-17T00:45:32;5.93;;;4.20;;
28266;SDS011;15525;45.568;5.448;2023-08-17T00:47:59;6.43;;;4.45;;
28266;SDS011;15525;45.568;5.448;2023-08-17T00:50:24;7.03;;;4.00;;
28266;SDS011;15525;45.568;5.448;2023-08-17T00:52:51;6.18;;;4.35;;
28266;SDS011;15525;45.568;5.448;2023-08-17T00:55:18;7.35;;;4.60;;
28266;SDS011;15525;45.568;5.448;2023-08-17T00:57:44;6.25;;;4.50;;
28266;SDS011;15525;45.568;5.448;2023-08-17T01:00:11;5.05;;;4.25;;
28266;SDS011;15525;45.568;5.448;2023-08-17T01:02:38;6.45;;;4.72;;
28266;SDS011;15525;45.568;5.448;2023-08-17T01:05:05;5.88;;;4.30;;
28266;SDS011;15525;45.568;5.448;2023-08-17T01:07:31;6.32;;;4.00;;
28266;SDS011;15525;45.568;5.448;2023-08-17T01:09:57;8.18;;;4.50;;
28266;SDS011;15525;45.568;5.448;2023-08-17T01:12:30;5.93;;;4.22;;
28266;SDS011;15525;45.568;5.448;2023-08-17T01:17:33;5.50;;;4.20;;
28266;SDS011;15525;45.568;5.448;2023-08-17T01:20:06;8.75;;;4.60;;
28266;SDS011;15525;45.568;5.448;2023-08-17T01:22:37;7.40;;;4.15;;
28266;SDS011;15525;45.568;5.448;2023-08-17T01:25:16;5.13;;;4.30;;
28266;SDS011;15525;45.568;5.448;2023-08-17T01:27:42;6.85;;;4.80;;
28266;SDS011;15525;45.568;5.448;2023-08-17T01:30:10;9.88;;;4.78;;
28266;SDS011;15525;45.568;5.448;2023-08-17T01:32:44;9.85;;;4.72;;
28266;SDS011;15525;45.568;5.448;2023-08-17T01:37:59;7.32;;;4.65;;
28266;SDS011;15525;45.568;5.448;2023-08-17T01:40:28;6.45;;;4.20;;
28266;SDS011;15525;45.568;5.448;2023-08-17T01:42:57;7.07;;;4.53;;
28266;SDS011;15525;45.568;5.448;2023-08-17T01:45:23;7.55;;;4.47;;
28266;SDS011;15525;45.568;5.448;2023-08-17T01:47:50;7.43;;;4.40;;
28266;SDS011;15525;45.568;5.448;2023-08-17T01:50:15;6.15;;;4.45;;
28266;SDS011;15525;45.568;5.448;2023-08-17T01:52:40;9.68;;;4.25;;
28266;SDS011;15525;45.568;5.448;2023-08-17T01:55:06;6.53;;;4.20;;
28266;SDS011;15525;45.568;5.448;2023-08-17T01:57:32;6.20;;;4.15;;
28266;SDS011;15525;45.568;5.448;2023-08-17T01:59:57;5.43;;;4.18;;
28266;SDS011;15525;45.568;5.448;2023-08-17T02:02:23;9.30;;;4.00;;
28266;SDS011;15525;45.568;5.448;2023-08-17T02:04:48;4.93;;;4.20;;
28266;SDS011;15525;45.568;5.448;2023-08-17T02:07:14;5.07;;;4.28;;
28266;SDS011;15525;45.568;5.448;2023-08-17T02:09:39;5.80;;;4.13;;
28266;SDS011;15525;45.568;5.448;2023-08-17T02:12:05;5.80;;;3.72;;
28266;SDS011;15525;45.568;5.448;2023-08-17T02:14:30;5.68;;;4.25;;
28266;SDS011;15525;45.568;5.448;2023-08-17T02:16:56;5.85;;;3.92;;
28266;SDS011;15525;45.568;5.448;2023-08-17T02:19:21;8.88;;;4.00;;
28266;SDS011;15525;45.568;5.448;2023-08-17T02:21:47;6.32;;;4.00;;
28266;SDS011;15525;45.568;5.448;2023-08-17T02:24:13;8.90;;;4.50;;
28266;SDS011;15525;45.568;5.448;2023-08-17T02:26:38;5.65;;;4.10;;
28266;SDS011;15525;45.568;5.448;2023-08-17T02:29:05;8.73;;;4.30;;
28266;SDS011;15525;45.568;5.448;2023-08-17T02:31:30;7.22;;;4.28;;
28266;SDS011;15525;45.568;5.448;2023-08-17T02:33:55;8.50;;;4.20;;
28266;SDS011;15525;45.568;5.448;2023-08-17T02:36:25;7.53;;;4.30;;
28266;SDS011;15525;45.568;5.448;2023-08-17T02:38:54;5.00;;;3.80;;
28266;SDS011;15525;45.568;5.448;2023-08-17T02:41:20;6.72;;;4.25;;
28266;SDS011;15525;45.568;5.448;2023-08-17T02:43:45;5.45;;;4.05;;
28266;SDS011;15525;45.568;5.448;2023-08-17T02:46:11;5.13;;;3.97;;
28266;SDS011;15525;45.568;5.448;2023-08-17T02:48:36;9.18;;;4.80;;
28266;SDS011;15525;45.568;5.448;2023-08-17T02:51:02;5.82;;;4.10;;
28266;SDS011;15525;45.568;5.448;2023-08-17T02:53:27;7.47;;;4.32;;
28266;SDS011;15525;45.568;5.448;2023-08-17T02:55:53;6.40;;;4.25;;
28266;SDS011;15525;45.568;5.448;2023-08-17T02:58:18;8.20;;;4.15;;
28266;SDS011;15525;45.568;5.448;2023-08-17T03:00:44;6.68;;;4.10;;
28266;SDS011;15525;45.568;5.448;2023-08-17T03:03:09;5.88;;;4.60;;
28266;SDS011;15525;45.568;5.448;2023-08-17T03:05:35;10.38;;;4.60;;
28266;SDS011;15525;45.568;5.448;2023-08-17T03:08:00;6.60;;;4.45;;
28266;SDS011;15525;45.568;5.448;2023-08-17T03:10:26;10.18;;;4.38;;
28266;SDS011;15525;45.568;5.448;2023-08-17T03:12:51;8.35;;;4.00;;
28266;SDS011;15525;45.568;5.448;2023-08-17T03:15:16;5.05;;;4.30;;
28266;SDS011;15525;45.568;5.448;2023-08-17T03:17:42;6.15;;;4.20;;
28266;SDS011;15525;45.568;5.448;2023-08-17T03:20:08;7.30;;;4.38;;
28266;SDS011;15525;45.568;5.448;2023-08-17T03:22:34;6.50;;;4.32;;
28266;SDS011;15525;45.568;5.448;2023-08-17T03:24:59;5.70;;;4.07;;
28266;SDS011;15525;45.568;5.448;2023-08-17T03:27:25;5.25;;;4.25;;
28266;SDS011;15525;45.568;5.448;2023-08-17T03:29:51;7.05;;;4.43;;
28266;SDS011;15525;45.568;5.448;2023-08-17T03:32:16;6.00;;;4.53;;
28266;SDS011;15525;45.568;5.448;2023-08-17T03:34:42;7.68;;;4.68;;
28266;SDS011;15525;45.568;5.448;2023-08-17T03:37:07;6.20;;;4.18;;
28266;SDS011;15525;45.568;5.448;2023-08-17T03:39:33;8.07;;;4.55;;
28266;SDS011;15525;45.568;5.448;2023-08-17T03:41:58;7.72;;;4.60;;
28266;SDS011;15525;45.568;5.448;2023-08-17T03:44:24;8.63;;;4.38;;
28266;SDS011;15525;45.568;5.448;2023-08-17T03:46:49;6.32;;;4.28;;
28266;SDS011;15525;45.568;5.448;2023-08-17T03:49:14;7.55;;;4.68;;
28266;SDS011;15525;45.568;5.448;2023-08-17T03:51:41;7.10;;;5.40;;
28266;SDS011;15525;45.568;5.448;2023-08-17T03:54:07;6.65;;;4.85;;
28266;SDS011;15525;45.568;5.448;2023-08-17T03:56:32;6.50;;;4.40;;
28266;SDS011;15525;45.568;5.448;2023-08-17T03:58:58;7.65;;;4.35;;
28266;SDS011;15525;45.568;5.448;2023-08-17T04:01:23;6.68;;;4.38;;
28266;SDS011;15525;45.568;5.448;2023-08-17T04:03:48;5.88;;;4.25;;
28266;SDS011;15525;45.568;5.448;2023-08-17T04:06:14;5.53;;;4.50;;
28266;SDS011;15525;45.568;5.448;2023-08-17T04:08:39;9.90;;;4.85;;
28266;SDS011;15525;45.568;5.448;2023-08-17T04:11:05;8.27;;;4.40;;
28266;SDS011;15525;45.568;5.448;2023-08-17T04:13:31;6.55;;;5.13;;
28266;SDS011;15525;45.568;5.448;2023-08-17T04:15:57;8.13;;;4.80;;
28266;SDS011;15525;45.568;5.448;2023-08-17T04:18:23;6.10;;;4.20;;
28266;SDS011;15525;45.568;5.448;2023-08-17T04:20:48;7.78;;;4.80;;
28266;SDS011;15525;45.568;5.448;2023-08-17T04:23:14;6.82;;;5.00;;
28266;SDS011;15525;45.568;5.448;2023-08-17T04:25:40;9.07;;;4.70;;
28266;SDS011;15525;45.568;5.448;2023-08-17T04:28:05;7.80;;;4.80;;
28266;SDS011;15525;45.568;5.448;2023-08-17T04:30:30;9.15;;;5.35;;
28266;SDS011;15525;45.568;5.448;2023-08-17T04:32:56;8.63;;;4.80;;
28266;SDS011;15525;45.568;5.448;2023-08-17T04:35:21;5.13;;;4.45;;
28266;SDS011;15525;45.568;5.448;2023-08-17T04:37:47;10.52;;;5.53;;
28266;SDS011;15525;45.568;5.448;2023-08-17T04:40:13;6.68;;;4.47;;
28266;SDS011;15525;45.568;5.448;2023-08-17T04:42:38;6.60;;;4.78;;
28266;SDS011;15525;45.568;5.448;2023-08-17T04:45:04;10.02;;;5.25;;
28266;SDS011;15525;45.568;5.448;2023-08-17T04:47:30;9.00;;;4.85;;
28266;SDS011;15525;45.568;5.448;2023-08-17T04:49:55;6.95;;;4.88;;
28266;SDS011;15525;45.568;5.448;2023-08-17T04:52:21;9.75;;;5.07;;
28266;SDS011;15525;45.568;5.448;2023-08-17T04:54:46;8.55;;;5.63;;
28266;SDS011;15525;45.568;5.448;2023-08-17T04:57:11;7.50;;;4.95;;
28266;SDS011;15525;45.568;5.448;2023-08-17T04:59:37;8.20;;;5.25;;
28266;SDS011;15525;45.568;5.448;2023-08-17T05:02:02;8.82;;;5.50;;
28266;SDS011;15525;45.568;5.448;2023-08-17T05:04:29;9.40;;;5.65;;
28266;SDS011;15525;45.568;5.448;2023-08-17T05:06:56;10.65;;;6.15;;
28266;SDS011;15525;45.568;5.448;2023-08-17T05:09:21;8.63;;;4.90;;
28266;SDS011;15525;45.568;5.448;2023-08-17T05:11:47;13.45;;;5.75;;
28266;SDS011;15525;45.568;5.448;2023-08-17T05:14:12;7.07;;;5.25;;
28266;SDS011;15525;45.568;5.448;2023-08-17T05:16:38;11.18;;;5.13;;
28266;SDS011;15525;45.568;5.448;2023-08-17T05:19:03;9.27;;;5.60;;
28266;SDS011;15525;45.568;5.448;2023-08-17T05:21:29;7.45;;;5.25;;
28266;SDS011;15525;45.568;5.448;2023-08-17T05:23:54;6.35;;;4.78;;
28266;SDS011;15525;45.568;5.448;2023-08-17T05:26:20;11.90;;;5.10;;
28266;SDS011;15525;45.568;5.448;2023-08-17T05:28:46;8.75;;;5.20;;
28266;SDS011;15525;45.568;5.448;2023-08-17T05:31:11;6.40;;;4.63;;
28266;SDS011;15525;45.568;5.448;2023-08-17T05:33:37;16.10;;;5.90;;
28266;SDS011;15525;45.568;5.448;2023-08-17T05:36:02;9.43;;;5.35;;
28266;SDS011;15525;45.568;5.448;2023-08-17T05:38:28;9.15;;;5.28;;
28266;SDS011;15525;45.568;5.448;2023-08-17T05:40:57;8.25;;;5.25;;
28266;SDS011;15525;45.568;5.448;2023-08-17T05:43:23;8.68;;;5.18;;
28266;SDS011;15525;45.568;5.448;2023-08-17T05:45:49;10.68;;;5.85;;
28266;SDS011;15525;45.568;5.448;2023-08-17T05:48:14;8.88;;;5.13;;
28266;SDS011;15525;45.568;5.448;2023-08-17T05:50:43;10.10;;;5.72;;
28266;SDS011;15525;45.568;5.448;2023-08-17T05:53:08;8.45;;;5.28;;
28266;SDS011;15525;45.568;5.448;2023-08-17T05:55:34;10.80;;;5.35;;
28266;SDS011;15525;45.568;5.448;2023-08-17T05:57:59;7.03;;;5.05;;
28266;SDS011;15525;45.568;5.448;2023-08-17T06:00:25;9.02;;;5.25;;
28266;SDS011;15525;45.568;5.448;2023-08-17T06:02:50;6.95;;;4.95;;
28266;SDS011;15525;45.568;5.448;2023-08-17T06:05:19;9.20;;;5.28;;
28266;SDS011;15525;45.568;5.448;2023-08-17T06:07:44;7.47;;;4.85;;
28266;SDS011;15525;45.568;5.448;2023-08-17T06:10:10;6.75;;;5.25;;
28266;SDS011;15525;45.568;5.448;2023-08-17T06:12:36;7.47;;;5.03;;
28266;SDS011;15525;45.568;5.448;2023-08-17T06:15:02;9.95;;;5.00;;
28266;SDS011;15525;45.568;5.448;2023-08-17T06:17:28;6.88;;;4.88;;
28266;SDS011;15525;45.568;5.448;2023-08-17T06:19:54;8.05;;;4.68;;
28266;SDS011;15525;45.568;5.448;2023-08-17T06:22:19;9.77;;;4.88;;
28266;SDS011;15525;45.568;5.448;2023-08-17T06:24:44;7.18;;;4.40;;
28266;SDS011;15525;45.568;5.448;2023-08-17T06:27:13;6.03;;;4.55;;
28266;SDS011;15525;45.568;5.448;2023-08-17T06:29:39;8.27;;;4.80;;
28266;SDS011;15525;45.568;5.448;2023-08-17T06:32:05;8.15;;;5.20;;
28266;SDS011;15525;45.568;5.448;2023-08-17T06:34:30;8.90;;;5.68;;
28266;SDS011;15525;45.568;5.448;2023-08-17T06:37:01;9.07;;;5.18;;
28266;SDS011;15525;45.568;5.448;2023-08-17T06:39:27;9.38;;;5.25;;
28266;SDS011;15525;45.568;5.448;2023-08-17T06:41:53;10.25;;;5.25;;
28266;SDS011;15525;45.568;5.448;2023-08-17T06:44:18;10.13;;;5.65;;
28266;SDS011;15525;45.568;5.448;2023-08-17T06:46:44;6.88;;;5.22;;
28266;SDS011;15525;45.568;5.448;2023-08-17T06:49:10;9.95;;;5.28;;
28266;SDS011;15525;45.568;5.448;2023-08-17T06:51:36;6.75;;;4.85;;
28266;SDS011;15525;45.568;5.448;2023-08-17T06:54:01;7.93;;;4.97;;
28266;SDS011;15525;45.568;5.448;2023-08-17T06:56:27;9.25;;;5.68;;
28266;SDS011;15525;45.568;5.448;2023-08-17T06:58:52;10.95;;;5.47;;
28266;SDS011;15525;45.568;5.448;2023-08-17T07:01:18;9.32;;;5.30;;
28266;SDS011;15525;45.568;5.448;2023-08-17T07:03:43;13.30;;;6.00;;
28266;SDS011;15525;45.568;5.448;2023-08-17T07:06:09;10.32;;;6.10;;
28266;SDS011;15525;45.568;5.448;2023-08-17T07:08:35;10.60;;;5.30;;
28266;SDS011;15525;45.568;5.448;2023-08-17T07:11:00;7.97;;;5.78;;
28266;SDS011;15525;45.568;5.448;2023-08-17T07:13:26;7.80;;;5.03;;
28266;SDS011;15525;45.568;5.448;2023-08-17T07:15:51;8.98;;;5.72;;
28266;SDS011;15525;45.568;5.448;2023-08-17T07:18:17;6.85;;;5.72;;
28266;SDS011;15525;45.568;5.448;2023-08-17T07:20:43;8.40;;;5.55;;
28266;SDS011;15525;45.568;5.448;2023-08-17T07:23:08;10.05;;;6.00;;
28266;SDS011;15525;45.568;5.448;2023-08-17T07:25:34;9.77;;;5.10;;
28266;SDS011;15525;45.568;5.448;2023-08-17T07:27:59;9.27;;;5.43;;
28266;SDS011;15525;45.568;5.448;2023-08-17T07:30:25;8.48;;;5.50;;
28266;SDS011;15525;45.568;5.448;2023-08-17T07:32:50;10.05;;;5.03;;
28266;SDS011;15525;45.568;5.448;2023-08-17T07:35:16;6.63;;;5.28;;
28266;SDS011;15525;45.568;5.448;2023-08-17T07:37:41;9.73;;;5.60;;
28266;SDS011;15525;45.568;5.448;2023-08-17T07:40:07;9.32;;;5.47;;
28266;SDS011;15525;45.568;5.448;2023-08-17T07:42:33;11.27;;;5.78;;
28266;SDS011;15525;45.568;5.448;2023-08-17T07:44:58;8.77;;;4.97;;
28266;SDS011;15525;45.568;5.448;2023-08-17T07:47:24;8.70;;;5.03;;
28266;SDS011;15525;45.568;5.448;2023-08-17T07:49:49;7.57;;;4.75;;
28266;SDS011;15525;45.568;5.448;2023-08-17T07:52:15;10.65;;;4.95;;
28266;SDS011;15525;45.568;5.448;2023-08-17T07:54:41;11.32;;;4.97;;
28266;SDS011;15525;45.568;5.448;2023-08-17T07:57:06;9.25;;;5.03;;
28266;SDS011;15525;45.568;5.448;2023-08-17T07:59:31;6.72;;;4.95;;
28266;SDS011;15525;45.568;5.448;2023-08-17T08:01:57;8.55;;;5.28;;
28266;SDS011;15525;45.568;5.448;2023-08-17T08:04:22;7.93;;;4.75;;
28266;SDS011;15525;45.568;5.448;2023-08-17T08:06:48;8.77;;;4.70;;
28266;SDS011;15525;45.568;5.448;2023-08-17T08:09:13;6.95;;;4.70;;
28266;SDS011;15525;45.568;5.448;2023-08-17T08:11:38;7.88;;;4.57;;
28266;SDS011;15525;45.568;5.448;2023-08-17T08:14:04;10.90;;;5.10;;
28266;SDS011;15525;45.568;5.448;2023-08-17T08:16:29;5.22;;;4.53;;
28266;SDS011;15525;45.568;5.448;2023-08-17T08:18:55;9.95;;;5.20;;
28266;SDS011;15525;45.568;5.448;2023-08-17T08:21:21;8.43;;;4.63;;
28266;SDS011;15525;45.568;5.448;2023-08-17T08:23:46;6.03;;;4.15;;
28266;SDS011;15525;45.568;5.448;2023-08-17T08:26:12;6.05;;;4.15;;
28266;SDS011;15525;45.568;5.448;2023-08-17T08:28:37;5.78;;;4.70;;
28266;SDS011;15525;45.568;5.448;2023-08-17T08:31:03;7.18;;;4.38;;
28266;SDS011;15525;45.568;5.448;2023-08-17T08:33:29;7.40;;;4.60;;
28266;SDS011;15525;45.568;5.448;2023-08-17T08:35:55;6.93;;;4.20;;
28266;SDS011;15525;45.568;5.448;2023-08-17T08:38:20;6.60;;;4.40;;
28266;SDS011;15525;45.568;5.448;2023-08-17T08:40:47;9.07;;;4.38;;
28266;SDS011;15525;45.568;5.448;2023-08-17T08:43:13;7.57;;;4.18;;
28266;SDS011;15525;45.568;5.448;2023-08-17T08:45:41;5.32;;;4.15;;
28266;SDS011;15525;45.568;5.448;2023-08-17T08:48:16;7.15;;;4.38;;
28266;SDS011;15525;45.568;5.448;2023-08-17T08:50:44;7.10;;;4.18;;
28266;SDS011;15525;45.568;5.448;2023-08-17T08:53:15;7.72;;;4.10;;
28266;SDS011;15525;45.568;5.448;2023-08-17T08:55:55;6.53;;;4.47;;
28266;SDS011;15525;45.568;5.448;2023-08-17T08:58:27;7.35;;;4.50;;
28266;SDS011;15525;45.568;5.448;2023-08-17T09:00:54;8.27;;;4.68;;
28266;SDS011;15525;45.568;5.448;2023-08-17T09:03:22;7.43;;;4.22;;
28266;SDS011;15525;45.568;5.448;2023-08-17T09:05:49;7.00;;;4.57;;
28266;SDS011;15525;45.568;5.448;2023-08-17T09:08:25;6.68;;;4.82;;
28266;SDS011;15525;45.568;5.448;2023-08-17T09:10:53;6.20;;;3.95;;
28266;SDS011;15525;45.568;5.448;2023-08-17T09:13:19;6.55;;;4.40;;
28266;SDS011;15525;45.568;5.448;2023-08-17T09:15:44;7.90;;;4.50;;
28266;SDS011;15525;45.568;5.448;2023-08-17T09:18:09;5.03;;;4.22;;
28266;SDS011;15525;45.568;5.448;2023-08-17T09:20:36;6.00;;;3.88;;
28266;SDS011;15525;45.568;5.448;2023-08-17T09:23:03;7.47;;;4.80;;
28266;SDS011;15525;45.568;5.448;2023-08-17T09:25:29;6.97;;;4.03;;
28266;SDS011;15525;45.568;5.448;2023-08-17T09:27:56;6.35;;;4.28;;
28266;SDS011;15525;45.568;5.448;2023-08-17T09:30:22;9.68;;;4.60;;
28266;SDS011;15525;45.568;5.448;2023-08-17T09:32:48;7.60;;;5.43;;
28266;SDS011;15525;45.568;5.448;2023-08-17T09:35:14;4.40;;;4.00;;
28266;SDS011;15525;45.568;5.448;2023-08-17T09:37:40;7.82;;;4.10;;
28266;SDS011;15525;45.568;5.448;2023-08-17T09:40:05;6.60;;;4.40;;
28266;SDS011;15525;45.568;5.448;2023-08-17T09:42:34;5.07;;;4.35;;
28266;SDS011;15525;45.568;5.448;2023-08-17T09:45:00;5.03;;;4.47;;
28266;SDS011;15525;45.568;5.448;2023-08-17T09:47:27;8.27;;;4.90;;
28266;SDS011;15525;45.568;5.448;2023-08-17T09:49:53;6.93;;;4.40;;
28266;SDS011;15525;45.568;5.448;2023-08-17T09:52:19;7.25;;;4.30;;
28266;SDS011;15525;45.568;5.448;2023-08-17T09:54:46;9.60;;;4.85;;
28266;SDS011;15525;45.568;5.448;2023-08-17T09:57:15;5.90;;;4.50;;
28266;SDS011;15525;45.568;5.448;2023-08-17T09:59:41;6.45;;;4.60;;
28266;SDS011;15525;45.568;5.448;2023-08-17T10:02:19;8.10;;;4.15;;
28266;SDS011;15525;45.568;5.448;2023-08-17T10:04:51;5.50;;;4.40;;
28266;SDS011;15525;45.568;5.448;2023-08-17T10:07:18;6.63;;;4.57;;
28266;SDS011;15525;45.568;5.448;2023-08-17T10:09:46;6.70;;;4.25;;
28266;SDS011;15525;45.568;5.448;2023-08-17T10:12:18;7.70;;;4.37;;
28266;SDS011;15525;45.568;5.448;2023-08-17T10:14:49;6.65;;;4.68;;
28266;SDS011;15525;45.568;5.448;2023-08-17T10:17:23;9.07;;;4.82;;
28266;SDS011;15525;45.568;5.448;2023-08-17T10:19:52;8.02;;;4.70;;
28266;SDS011;15525;45.568;5.448;2023-08-17T10:22:26;5.07;;;4.55;;
28266;SDS011;15525;45.568;5.448;2023-08-17T10:24:57;8.43;;;4.53;;
28266;SDS011;15525;45.568;5.448;2023-08-17T10:27:24;8.68;;;4.85;;
28266;SDS011;15525;45.568;5.448;2023-08-17T10:29:51;6.47;;;4.78;;
28266;SDS011;15525;45.568;5.448;2023-08-17T10:32:17;7.38;;;4.15;;
28266;SDS011;15525;45.568;5.448;2023-08-17T10:34:43;11.35;;;4.85;;
28266;SDS011;15525;45.568;5.448;2023-08-17T10:37:09;12.07;;;4.70;;
28266;SDS011;15525;45.568;5.448;2023-08-17T10:39:36;7.78;;;4.28;;
28266;SDS011;15525;45.568;5.448;2023-08-17T10:42:09;10.60;;;5.20;;
28266;SDS011;15525;45.568;5.448;2023-08-17T10:47:26;5.97;;;4.32;;
28266;SDS011;15525;45.568;5.448;2023-08-17T10:49:57;12.18;;;4.30;;
28266;SDS011;15525;45.568;5.448;2023-08-17T10:52:31;7.90;;;4.40;;
28266;SDS011;15525;45.568;5.448;2023-08-17T10:55:01;9.10;;;4.25;;
28266;SDS011;15525;45.568;5.448;2023-08-17T10:57:30;5.78;;;4.00;;
28266;SDS011;15525;45.568;5.448;2023-08-17T11:02:33;8.73;;;4.32;;
28266;SDS011;15525;45.568;5.448;2023-08-17T11:05:00;7.40;;;3.88;;
28266;SDS011;15525;45.568;5.448;2023-08-17T11:07:26;8.45;;;4.15;;
28266;SDS011;15525;45.568;5.448;2023-08-17T11:09:57;6.85;;;4.20;;
28266;SDS011;15525;45.568;5.448;2023-08-17T11:12:26;8.82;;;4.50;;
28266;SDS011;15525;45.568;5.448;2023-08-17T11:14:52;11.70;;;4.35;;
28266;SDS011;15525;45.568;5.448;2023-08-17T11:17:20;10.90;;;4.53;;
28266;SDS011;15525;45.568;5.448;2023-08-17T11:19:46;6.15;;;4.38;;
28266;SDS011;15525;45.568;5.448;2023-08-17T11:22:11;9.13;;;4.25;;
28266;SDS011;15525;45.568;5.448;2023-08-17T11:24:38;8.68;;;3.92;;
28266;SDS011;15525;45.568;5.448;2023-08-17T11:27:05;7.05;;;4.32;;
28266;SDS011;15525;45.568;5.448;2023-08-17T11:29:31;15.45;;;4.60;;
28266;SDS011;15525;45.568;5.448;2023-08-17T11:31:58;8.38;;;4.20;;
28266;SDS011;15525;45.568;5.448;2023-08-17T11:34:23;8.70;;;4.43;;
28266;SDS011;15525;45.568;5.448;2023-08-17T11:36:49;7.25;;;3.83;;
28266;SDS011;15525;45.568;5.448;2023-08-17T11:39:14;8.63;;;4.35;;
28266;SDS011;15525;45.568;5.448;2023-08-17T11:41:40;10.85;;;4.57;;
28266;SDS011;15525;45.568;5.448;2023-08-17T11:44:06;9.13;;;3.65;;
28266;SDS011;15525;45.568;5.448;2023-08-17T11:46:32;10.25;;;4.03;;
28266;SDS011;15525;45.568;5.448;2023-08-17T11:49:00;8.02;;;3.67;;
28266;SDS011;15525;45.568;5.448;2023-08-17T11:51:29;9.77;;;4.00;;
28266;SDS011;15525;45.568;5.448;2023-08-17T11:53:58;11.52;;;3.85;;
28266;SDS011;15525;45.568;5.448;2023-08-17T11:56:24;6.45;;;3.35;;
28266;SDS011;15525;45.568;5.448;2023-08-17T11:58:50;9.10;;;3.42;;
28266;SDS011;15525;45.568;5.448;2023-08-17T12:01:15;6.20;;;3.47;;
28266;SDS011;15525;45.568;5.448;2023-08-17T12:03:41;7.88;;;2.90;;
28266;SDS011;15525;45.568;5.448;2023-08-17T12:06:06;6.68;;;3.28;;
28266;SDS011;15525;45.568;5.448;2023-08-17T12:08:32;8.90;;;3.30;;
28266;SDS011;15525;45.568;5.448;2023-08-17T12:10:58;12.10;;;3.47;;
28266;SDS011;15525;45.568;5.448;2023-08-17T12:13:30;5.90;;;3.00;;
28266;SDS011;15525;45.568;5.448;2023-08-17T12:15:57;5.82;;;3.00;;
28266;SDS011;15525;45.568;5.448;2023-08-17T12:18:24;10.57;;;3.20;;
28266;SDS011;15525;45.568;5.448;2023-08-17T12:20:54;6.47;;;3.33;;
28266;SDS011;15525;45.568;5.448;2023-08-17T12:23:20;10.95;;;3.30;;
28266;SDS011;15525;45.568;5.448;2023-08-17T12:25:45;7.22;;;3.08;;
28266;SDS011;15525;45.568;5.448;2023-08-17T12:28:14;7.97;;;3.30;;
28266;SDS011;15525;45.568;5.448;2023-08-17T12:30:39;8.13;;;3.53;;
28266;SDS011;15525;45.568;5.448;2023-08-17T12:33:05;7.47;;;3.22;;
28266;SDS011;15525;45.568;5.448;2023-08-17T12:35:31;7.78;;;3.28;;
28266;SDS011;15525;45.568;5.448;2023-08-17T12:37:57;9.27;;;3.20;;
28266;SDS011;15525;45.568;5.448;2023-08-17T12:40:22;7.50;;;3.33;;
28266;SDS011;15525;45.568;5.448;2023-08-17T12:42:48;9.13;;;3.60;;
28266;SDS011;15525;45.568;5.448;2023-08-17T12:45:14;11.18;;;3.97;;
28266;SDS011;15525;45.568;5.448;2023-08-17T12:47:40;9.30;;;3.47;;
28266;SDS011;15525;45.568;5.448;2023-08-17T12:50:06;10.23;;;3.55;;
28266;SDS011;15525;45.568;5.448;2023-08-17T12:52:32;7.93;;;3.72;;
28266;SDS011;15525;45.568;5.448;2023-08-17T12:54:57;8.18;;;3.15;;
28266;SDS011;15525;45.568;5.448;2023-08-17T12:57:23;9.82;;;3.28;;
28266;SDS011;15525;45.568;5.448;2023-08-17T12:59:49;8.50;;;3.40;;
28266;SDS011;15525;45.568;5.448;2023-08-17T13:02:14;10.63;;;3.30;;
28266;SDS011;15525;45.568;5.448;2023-08-17T13:04:40;6.82;;;2.95;;
28266;SDS011;15525;45.568;5.448;2023-08-17T13:07:06;6.85;;;3.17;;
28266;SDS011;15525;45.568;5.448;2023-08-17T13:09:31;12.52;;;3.25;;
28266;SDS011;15525;45.568;5.448;2023-08-17T13:11:57;7.00;;;3.10;;
28266;SDS011;15525;45.568;5.448;2023-08-17T13:14:22;6.50;;;3.00;;
28266;SDS011;15525;45.568;5.448;2023-08-17T13:16:48;8.73;;;3.10;;
28266;SDS011;15525;45.568;5.448;2023-08-17T13:19:14;5.10;;;2.60;;
28266;SDS011;15525;45.568;5.448;2023-08-17T13:21:40;10.73;;;2.80;;
28266;SDS011;15525;45.568;5.448;2023-08-17T13:24:05;9.95;;;2.85;;
28266;SDS011;15525;45.568;5.448;2023-08-17T13:26:31;9.70;;;3.53;;
28266;SDS011;15525;45.568;5.448;2023-08-17T13:28:57;10.55;;;3.00;;
28266;SDS011;15525;45.568;5.448;2023-08-17T13:31:22;8.07;;;3.03;;
28266;SDS011;15525;45.568;5.448;2023-08-17T13:33:48;7.38;;;3.00;;
28266;SDS011;15525;45.568;5.448;2023-08-17T13:36:13;8.85;;;2.80;;
28266;SDS011;15525;45.568;5.448;2023-08-17T13:38:39;8.10;;;2.80;;
28266;SDS011;15525;45.568;5.448;2023-08-17T13:41:04;5.75;;;2.75;;
28266;SDS011;15525;45.568;5.448;2023-08-17T13:43:30;10.85;;;2.85;;
28266;SDS011;15525;45.568;5.448;2023-08-17T13:45:55;12.68;;;2.88;;
28266;SDS011;15525;45.568;5.448;2023-08-17T13:48:21;6.88;;;3.00;;
28266;SDS011;15525;45.568;5.448;2023-08-17T13:50:46;4.47;;;3.03;;
28266;SDS011;15525;45.568;5.448;2023-08-17T13:53:12;12.02;;;4.15;;
28266;SDS011;15525;45.568;5.448;2023-08-17T13:55:37;6.50;;;3.03;;
28266;SDS011;15525;45.568;5.448;2023-08-17T13:58:03;9.02;;;3.60;;
28266;SDS011;15525;45.568;5.448;2023-08-17T14:00:28;6.72;;;3.03;;
28266;SDS011;15525;45.568;5.448;2023-08-17T14:02:54;9.27;;;3.17;;
28266;SDS011;15525;45.568;5.448;2023-08-17T14:05:19;8.00;;;3.60;;
28266;SDS011;15525;45.568;5.448;2023-08-17T14:07:45;6.43;;;3.35;;
28266;SDS011;15525;45.568;5.448;2023-08-17T14:10:12;9.95;;;3.67;;
28266;SDS011;15525;45.568;5.448;2023-08-17T14:12:38;6.68;;;3.25;;
28266;SDS011;15525;45.568;5.448;2023-08-17T14:15:03;9.05;;;3.15;;
28266;SDS011;15525;45.568;5.448;2023-08-17T14:17:29;6.72;;;3.72;;
28266;SDS011;15525;45.568;5.448;2023-08-17T14:19:54;9.13;;;3.63;;
28266;SDS011;15525;45.568;5.448;2023-08-17T14:22:20;7.75;;;3.65;;
28266;SDS011;15525;45.568;5.448;2023-08-17T14:24:46;7.75;;;3.63;;
28266;SDS011;15525;45.568;5.448;2023-08-17T14:27:11;7.95;;;3.60;;
28266;SDS011;15525;45.568;5.448;2023-08-17T14:29:38;7.38;;;3.20;;
28266;SDS011;15525;45.568;5.448;2023-08-17T14:32:03;5.57;;;3.13;;
28266;SDS011;15525;45.568;5.448;2023-08-17T14:34:29;8.90;;;3.92;;
28266;SDS011;15525;45.568;5.448;2023-08-17T14:36:54;6.65;;;3.50;;
28266;SDS011;15525;45.568;5.448;2023-08-17T14:39:20;6.13;;;3.13;;
28266;SDS011;15525;45.568;5.448;2023-08-17T14:41:45;7.47;;;3.40;;
28266;SDS011;15525;45.568;5.448;2023-08-17T14:44:11;7.57;;;3.65;;
28266;SDS011;15525;45.568;5.448;2023-08-17T14:46:37;9.23;;;3.55;;
28266;SDS011;15525;45.568;5.448;2023-08-17T14:49:04;7.85;;;3.83;;
28266;SDS011;15525;45.568;5.448;2023-08-17T14:51:29;4.55;;;3.28;;